createdAt,value
2023-11-19T00:05:03.563Z,224.50
2023-11-19T00:10:13.009Z,216.50
2023-11-19T00:15:20.338Z,214.50
2023-11-19T00:20:25.860Z,199.00
2023-11-19T00:25:31.148Z,203.75
2023-11-19T00:30:37.244Z,195.25
2023-11-19T00:35:42.405Z,205.00
2023-11-19T00:40:47.585Z,204.25
2023-11-19T00:45:53.488Z,207.75
2023-11-19T00:50:58.652Z,213.75
2023-11-19T00:56:03.911Z,213.00
2023-11-19T01:01:09.194Z,213.00
2023-11-19T01:06:13.999Z,174.25
2023-11-19T01:11:24.860Z,216.25
2023-11-19T01:16:30.158Z,209.75
2023-11-19T01:21:35.207Z,219.25
2023-11-19T01:26:40.433Z,221.75
2023-11-19T01:31:45.827Z,219.00
2023-11-19T01:36:51.488Z,226.00
2023-11-19T01:41:57.220Z,221.00
2023-11-19T01:47:03.314Z,224.50
2023-11-19T01:52:08.699Z,244.00
2023-11-19T01:57:13.938Z,246.75
2023-11-19T02:02:23.022Z,241.50
2023-11-19T02:07:28.191Z,248.00
2023-11-19T02:12:37.517Z,252.25
2023-11-19T02:17:42.516Z,246.50
2023-11-19T02:22:48.188Z,251.25
2023-11-19T02:28:04.136Z,247.50
2023-11-19T02:33:09.081Z,252.50
2023-11-19T02:38:16.789Z,256.25
2023-11-19T02:43:21.902Z,241.50
2023-11-19T02:48:27.431Z,247.75
2023-11-19T02:53:33.356Z,246.00
2023-11-19T02:58:38.626Z,240.50
2023-11-19T03:03:44.536Z,252.50
2023-11-19T03:08:49.436Z,254.25
2023-11-19T03:13:54.310Z,250.50
2023-11-19T03:18:59.623Z,270.50
2023-11-19T03:24:05.459Z,257.50
2023-11-19T03:29:11.695Z,255.75
2023-11-19T03:34:21.602Z,245.50
2023-11-19T03:39:28.002Z,256.25
2023-11-19T03:44:33.346Z,254.00
2023-11-19T03:49:39.586Z,249.00
2023-11-19T03:54:44.855Z,243.75
2023-11-19T03:59:50.688Z,263.25
2023-11-19T04:04:56.076Z,247.75
2023-11-19T04:10:01.490Z,255.00
2023-11-19T04:15:09.074Z,261.00
2023-11-19T04:20:20.593Z,264.25
2023-11-19T04:25:28.761Z,262.75
2023-11-19T04:30:38.352Z,220.00
2023-11-19T04:35:43.896Z,230.00
2023-11-19T04:40:49.498Z,226.00
2023-11-19T04:45:56.325Z,237.25
2023-11-19T04:51:02.029Z,240.00
2023-11-19T04:56:14.352Z,240.25
2023-11-19T05:01:19.728Z,223.75
2023-11-19T05:06:25.037Z,232.25
2023-11-19T05:11:32.042Z,241.25
2023-11-19T05:16:39.134Z,227.75
2023-11-19T05:21:47.936Z,230.50
2023-11-19T05:26:53.513Z,235.25
2023-11-19T05:31:59.471Z,231.75
2023-11-19T05:37:05.284Z,239.50
2023-11-19T05:42:13.025Z,248.50
2023-11-19T05:47:22.199Z,240.50
2023-11-19T05:52:35.982Z,255.75
2023-11-19T06:02:51.258Z,257.50
2023-11-19T06:07:56.566Z,256.50
2023-11-19T06:13:02.980Z,266.50
2023-11-19T06:18:08.479Z,264.25
2023-11-19T06:23:13.854Z,270.25
2023-11-19T06:28:19.832Z,276.50
2023-11-19T06:33:26.394Z,273.50
2023-11-19T06:38:33.221Z,272.75
2023-11-19T06:48:48.726Z,267.75
2023-11-19T06:53:54.482Z,267.00
2023-11-19T06:59:00.866Z,278.25
2023-11-19T07:04:15.709Z,263.25
2023-11-19T07:09:21.396Z,277.25
2023-11-19T07:14:28.155Z,286.00
2023-11-19T07:19:33.832Z,297.75
2023-11-19T07:24:39.693Z,295.75
2023-11-19T07:29:47.382Z,294.75
2023-11-19T07:34:55.141Z,285.75
2023-11-19T07:40:01.623Z,299.75
2023-11-19T07:45:08.279Z,302.25
2023-11-19T07:50:17.779Z,316.75
2023-11-19T07:55:23.864Z,327.25
2023-11-19T08:00:29.484Z,323.25
2023-11-19T08:05:35.316Z,319.50
2023-11-19T08:10:40.787Z,324.25
2023-11-19T08:15:49.644Z,323.75
2023-11-19T08:20:57.015Z,346.50
2023-11-19T08:26:02.626Z,325.25
2023-11-19T08:31:08.605Z,332.00
2023-11-19T08:36:18.924Z,311.50
2023-11-19T08:41:26.193Z,332.25
2023-11-19T08:46:31.733Z,331.75
2023-11-19T08:51:37.338Z,326.00
2023-11-19T08:56:43.085Z,326.50
2023-11-19T09:01:48.515Z,341.50
2023-11-19T09:06:54.041Z,334.00
2023-11-19T09:12:00.466Z,327.00
2023-11-19T09:17:07.181Z,332.75
2023-11-19T09:22:12.473Z,336.50
2023-11-19T09:27:19.548Z,335.75
2023-11-19T09:32:28.983Z,304.25
2023-11-19T09:37:34.714Z,323.25
2023-11-19T09:42:47.233Z,360.25
2023-11-19T09:47:55.397Z,393.75
2023-11-19T09:53:00.820Z,390.25
2023-11-19T09:58:07.390Z,432.75
2023-11-19T10:03:17.226Z,410.50
2023-11-19T10:08:24.002Z,386.25
2023-11-19T10:13:32.781Z,369.75
2023-11-19T10:18:41.299Z,385.75
2023-11-19T10:24:03.398Z,442.50
2023-11-19T10:29:10.018Z,522.00
2023-11-19T10:34:27.639Z,565.40
2023-11-19T10:40:07.781Z,569.40
2023-11-19T10:45:28.747Z,593.80
2023-11-19T10:50:33.619Z,608.20
2023-11-19T10:55:43.502Z,629.20
2023-11-19T11:00:53.578Z,597.60
2023-11-19T11:06:00.628Z,587.80
2023-11-19T11:11:09.286Z,585.00
2023-11-19T11:16:16.180Z,642.00
2023-11-19T11:21:26.301Z,576.00
2023-11-19T11:26:50.520Z,574.40
2023-11-19T11:32:06.240Z,570.67
2023-11-19T11:37:16.531Z,557.25
2023-11-19T11:42:25.470Z,569.50
2023-11-19T11:47:49.895Z,551.80
2023-11-19T11:53:02.780Z,570.80
2023-11-19T11:58:18.260Z,555.67
2023-11-19T12:03:29.003Z,564.75
2023-11-19T12:14:02.031Z,553.60
2023-11-19T12:19:11.068Z,537.00
2023-11-19T12:24:18.264Z,517.80
2023-11-19T12:29:26.465Z,521.80
2023-11-19T12:34:35.899Z,512.00
2023-11-19T12:39:40.878Z,491.00
2023-11-19T12:45:07.068Z,497.00
2023-11-19T12:50:13.083Z,486.50
2023-11-19T12:55:47.593Z,475.25
2023-11-19T13:01:02.135Z,459.25
2023-11-19T13:06:14.184Z,469.00
2023-11-19T13:11:35.955Z,464.25
2023-11-19T13:16:41.953Z,464.00
2023-11-19T13:21:49.928Z,430.00
2023-11-19T13:26:55.077Z,440.00
2023-11-19T13:32:06.730Z,433.75
2023-11-19T13:37:12.022Z,420.25
2023-11-19T13:42:20.737Z,396.00
2023-11-19T13:47:26.829Z,405.50
2023-11-19T13:52:33.540Z,402.75
2023-11-19T13:57:39.136Z,388.25
2023-11-19T14:02:46.510Z,383.00
2023-11-19T14:07:58.081Z,354.25
2023-11-19T14:13:04.161Z,366.75
2023-11-19T14:18:13.230Z,352.00
2023-11-19T14:23:21.425Z,344.25
2023-11-19T14:28:27.884Z,338.50
2023-11-19T14:33:38.761Z,335.75
2023-11-19T14:38:46.725Z,321.00
2023-11-19T14:43:53.407Z,311.00
2023-11-19T14:48:59.294Z,307.00
2023-11-19T14:54:07.057Z,308.75
2023-11-19T14:59:12.378Z,307.25
2023-11-19T15:04:19.877Z,303.00
2023-11-19T15:09:25.372Z,292.00
2023-11-19T15:14:35.684Z,286.50
2023-11-19T15:19:41.876Z,274.50
2023-11-19T15:24:47.483Z,274.50
2023-11-19T15:29:52.952Z,266.25
2023-11-19T15:35:06.274Z,264.50
2023-11-19T15:40:13.694Z,248.75
2023-11-19T15:45:19.277Z,247.25
2023-11-19T15:50:24.942Z,254.50
2023-11-19T15:55:31.028Z,235.75
2023-11-19T16:00:36.508Z,243.00
2023-11-19T16:05:42.026Z,233.50
2023-11-19T16:10:48.879Z,225.50
2023-11-19T16:15:56.430Z,222.25
2023-11-19T16:21:03.570Z,207.50
2023-11-19T16:26:09.051Z,219.50
2023-11-19T16:31:14.470Z,211.00
2023-11-19T16:36:20.145Z,193.75
2023-11-19T16:46:35.455Z,200.00
2023-11-19T16:51:41.006Z,195.00
2023-11-19T16:56:46.248Z,194.75
2023-11-19T17:01:53.234Z,190.25
2023-11-19T17:06:59.282Z,179.75
2023-11-19T17:12:04.450Z,180.00
2023-11-19T17:17:09.600Z,172.67
2023-11-19T17:22:14.874Z,182.00
2023-11-19T17:27:19.797Z,166.33
2023-11-19T17:32:25.329Z,163.33
2023-11-19T17:37:31.218Z,165.00
2023-11-19T17:42:36.473Z,163.00
2023-11-19T17:47:41.698Z,162.00
2023-11-19T17:52:46.752Z,166.67
2023-11-19T17:57:53.361Z,144.67
2023-11-19T18:02:59.057Z,160.33
2023-11-19T18:08:03.954Z,153.67
2023-11-19T18:13:11.548Z,138.67
2023-11-19T18:18:16.635Z,143.67
2023-11-19T18:23:22.511Z,130.67
2023-11-19T18:28:28.854Z,137.00
2023-11-19T18:33:34.136Z,137.67
2023-11-19T18:38:43.583Z,130.33
2023-11-19T18:43:48.477Z,133.00
2023-11-19T18:48:54.726Z,114.75
2023-11-19T18:54:01.093Z,128.50
2023-11-19T18:59:06.076Z,116.50
2023-11-19T19:04:12.326Z,122.00
2023-11-19T19:09:17.097Z,115.25
2023-11-19T19:14:21.888Z,112.25
2023-11-19T19:19:26.881Z,106.50
2023-11-19T19:24:31.524Z,103.25
2023-11-19T19:29:36.221Z,111.25
2023-11-19T19:34:41.389Z,96.75
2023-11-19T19:39:46.180Z,100.75
2023-11-19T19:44:50.829Z,101.50
2023-11-19T19:49:55.562Z,91.25
2023-11-19T19:55:00.655Z,99.25
2023-11-19T20:00:14.927Z,94.00
2023-11-19T20:05:21.796Z,86.25
2023-11-19T20:10:26.640Z,85.75
2023-11-19T20:15:31.814Z,84.50
2023-11-19T20:20:39.058Z,78.25
2023-11-19T20:25:44.880Z,83.50
2023-11-19T20:30:49.493Z,79.75
2023-11-19T20:35:55.160Z,75.00
2023-11-19T20:41:00.479Z,82.00
2023-11-19T20:46:06.717Z,79.75
2023-11-19T20:51:12.466Z,79.25
2023-11-19T20:56:17.197Z,76.25
2023-11-19T21:01:23.255Z,77.00
2023-11-19T21:06:27.836Z,73.25
2023-11-19T21:11:32.434Z,77.50
2023-11-19T21:16:37.390Z,75.25
2023-11-19T21:21:42.685Z,73.25
2023-11-19T21:26:48.181Z,70.50
2023-11-19T21:31:55.735Z,69.00
2023-11-19T21:37:00.492Z,70.00
2023-11-19T21:42:05.026Z,68.00
2023-11-19T21:47:09.533Z,66.75
2023-11-19T21:52:14.141Z,71.25
2023-11-19T21:57:19.274Z,70.25
2023-11-19T22:02:25.158Z,70.00
2023-11-19T22:07:33.275Z,61.75
2023-11-19T22:12:44.410Z,67.25
2023-11-19T22:17:55.607Z,67.50
2023-11-19T22:23:02.027Z,69.50
2023-11-19T22:28:20.624Z,64.00
2023-11-19T22:33:30.783Z,65.25
2023-11-19T22:38:36.198Z,60.00
2023-11-19T22:43:41.266Z,63.25
2023-11-19T22:48:46.485Z,61.50
2023-11-19T22:53:53.240Z,63.50
2023-11-19T22:58:59.802Z,60.00
2023-11-19T23:04:04.915Z,60.75
2023-11-19T23:09:10.310Z,61.75
2023-11-19T23:14:15.837Z,61.25
2023-11-19T23:19:21.245Z,56.75
2023-11-19T23:24:26.498Z,52.50
2023-11-19T23:29:31.581Z,60.00
2023-11-19T23:39:44.518Z,58.50
2023-11-19T23:44:49.868Z,61.75
2023-11-19T23:49:54.841Z,53.75
2023-11-19T23:55:01.045Z,58.75
